sensor_id;sensor_type;location;lat;lon;timestamp;P1;durP1;ratioP1;P2;durP2;ratioP2
22490;SDS011;11412;50.802;4.350;2023-04-06T00:01:07;15.80;;;9.52;;
22490;SDS011;11412;50.802;4.350;2023-04-06T00:03:33;15.52;;;9.75;;
22490;SDS011;11412;50.802;4.350;2023-04-06T00:05:59;16.88;;;10.13;;
22490;SDS011;11412;50.802;4.350;2023-04-06T00:08:25;18.35;;;9.73;;
22490;SDS011;11412;50.802;4.350;2023-04-06T00:10:51;16.50;;;10.25;;
22490;SDS011;11412;50.802;4.350;2023-04-06T00:13:17;22.05;;;10.23;;
22490;SDS011;11412;50.802;4.350;2023-04-06T00:15:43;13.98;;;9.68;;
22490;SDS011;11412;50.802;4.350;2023-04-06T00:18:09;16.08;;;9.63;;
22490;SDS011;11412;50.802;4.350;2023-04-06T00:20:34;15.82;;;9.80;;
22490;SDS011;11412;50.802;4.350;2023-04-06T00:23:00;14.43;;;9.18;;
22490;SDS011;11412;50.802;4.350;2023-04-06T00:25:26;13.25;;;9.07;;
22490;SDS011;11412;50.802;4.350;2023-04-06T00:27:51;13.60;;;9.18;;
22490;SDS011;11412;50.802;4.350;2023-04-06T00:30:17;20.88;;;9.95;;
22490;SDS011;11412;50.802;4.350;2023-04-06T00:32:43;18.63;;;9.70;;
22490;SDS011;11412;50.802;4.350;2023-04-06T00:35:09;11.93;;;8.95;;
22490;SDS011;11412;50.802;4.350;2023-04-06T00:37:35;15.00;;;10.25;;
22490;SDS011;11412;50.802;4.350;2023-04-06T00:40:02;15.32;;;9.20;;
22490;SDS011;11412;50.802;4.350;2023-04-06T00:42:28;16.13;;;10.52;;
22490;SDS011;11412;50.802;4.350;2023-04-06T00:44:54;13.50;;;9.70;;
22490;SDS011;11412;50.802;4.350;2023-04-06T00:47:21;15.18;;;9.60;;
22490;SDS011;11412;50.802;4.350;2023-04-06T00:49:48;16.27;;;9.75;;
22490;SDS011;11412;50.802;4.350;2023-04-06T00:52:14;14.80;;;10.23;;
22490;SDS011;11412;50.802;4.350;2023-04-06T00:54:40;14.90;;;9.75;;
22490;SDS011;11412;50.802;4.350;2023-04-06T00:57:06;14.45;;;9.85;;
22490;SDS011;11412;50.802;4.350;2023-04-06T00:59:32;16.33;;;10.27;;
22490;SDS011;11412;50.802;4.350;2023-04-06T01:01:57;16.70;;;10.38;;
22490;SDS011;11412;50.802;4.350;2023-04-06T01:04:23;16.27;;;10.55;;
22490;SDS011;11412;50.802;4.350;2023-04-06T01:06:49;15.13;;;10.85;;
22490;SDS011;11412;50.802;4.350;2023-04-06T01:09:16;17.83;;;10.45;;
22490;SDS011;11412;50.802;4.350;2023-04-06T01:11:42;18.55;;;10.95;;
22490;SDS011;11412;50.802;4.350;2023-04-06T01:14:08;14.90;;;10.50;;
22490;SDS011;11412;50.802;4.350;2023-04-06T01:16:34;17.25;;;10.55;;
22490;SDS011;11412;50.802;4.350;2023-04-06T01:19:00;15.30;;;9.90;;
22490;SDS011;11412;50.802;4.350;2023-04-06T01:21:31;18.52;;;10.80;;
22490;SDS011;11412;50.802;4.350;2023-04-06T01:23:57;17.10;;;11.15;;
22490;SDS011;11412;50.802;4.350;2023-04-06T01:26:23;15.60;;;9.63;;
22490;SDS011;11412;50.802;4.350;2023-04-06T01:28:48;18.48;;;11.23;;
22490;SDS011;11412;50.802;4.350;2023-04-06T01:31:14;16.65;;;10.88;;
22490;SDS011;11412;50.802;4.350;2023-04-06T01:33:40;21.45;;;11.82;;
22490;SDS011;11412;50.802;4.350;2023-04-06T01:36:06;18.33;;;10.75;;
22490;SDS011;11412;50.802;4.350;2023-04-06T01:38:32;17.65;;;11.60;;
22490;SDS011;11412;50.802;4.350;2023-04-06T01:40:57;16.92;;;10.95;;
22490;SDS011;11412;50.802;4.350;2023-04-06T01:43:23;16.95;;;11.50;;
22490;SDS011;11412;50.802;4.350;2023-04-06T01:45:49;17.08;;;11.18;;
22490;SDS011;11412;50.802;4.350;2023-04-06T01:48:14;17.20;;;11.07;;
22490;SDS011;11412;50.802;4.350;2023-04-06T01:50:40;19.02;;;10.77;;
22490;SDS011;11412;50.802;4.350;2023-04-06T01:53:06;15.02;;;11.10;;
22490;SDS011;11412;50.802;4.350;2023-04-06T01:55:31;17.65;;;11.20;;
22490;SDS011;11412;50.802;4.350;2023-04-06T01:57:57;19.02;;;11.07;;
22490;SDS011;11412;50.802;4.350;2023-04-06T02:00:23;18.65;;;11.05;;
22490;SDS011;11412;50.802;4.350;2023-04-06T02:02:48;19.13;;;11.23;;
22490;SDS011;11412;50.802;4.350;2023-04-06T02:05:15;17.42;;;10.70;;
22490;SDS011;11412;50.802;4.350;2023-04-06T02:07:40;18.23;;;11.48;;
22490;SDS011;11412;50.802;4.350;2023-04-06T02:10:11;15.98;;;11.10;;
22490;SDS011;11412;50.802;4.350;2023-04-06T02:12:38;16.10;;;10.18;;
22490;SDS011;11412;50.802;4.350;2023-04-06T02:15:04;17.48;;;11.30;;
22490;SDS011;11412;50.802;4.350;2023-04-06T02:17:30;15.35;;;10.55;;
22490;SDS011;11412;50.802;4.350;2023-04-06T02:19:55;19.10;;;11.30;;
22490;SDS011;11412;50.802;4.350;2023-04-06T02:22:21;16.92;;;11.80;;
22490;SDS011;11412;50.802;4.350;2023-04-06T02:24:47;18.40;;;10.98;;
22490;SDS011;11412;50.802;4.350;2023-04-06T02:27:13;17.20;;;11.57;;
22490;SDS011;11412;50.802;4.350;2023-04-06T02:29:39;17.52;;;10.73;;
22490;SDS011;11412;50.802;4.350;2023-04-06T02:32:05;17.00;;;11.55;;
22490;SDS011;11412;50.802;4.350;2023-04-06T02:34:31;19.00;;;11.20;;
22490;SDS011;11412;50.802;4.350;2023-04-06T02:36:57;17.20;;;11.23;;
22490;SDS011;11412;50.802;4.350;2023-04-06T02:39:23;15.98;;;11.27;;
22490;SDS011;11412;50.802;4.350;2023-04-06T02:41:48;17.80;;;11.60;;
22490;SDS011;11412;50.802;4.350;2023-04-06T02:44:14;17.00;;;11.45;;
22490;SDS011;11412;50.802;4.350;2023-04-06T02:46:40;17.52;;;10.88;;
22490;SDS011;11412;50.802;4.350;2023-04-06T02:49:05;15.98;;;10.50;;
22490;SDS011;11412;50.802;4.350;2023-04-06T02:51:31;16.20;;;11.05;;
22490;SDS011;11412;50.802;4.350;2023-04-06T02:53:57;17.15;;;10.70;;
22490;SDS011;11412;50.802;4.350;2023-04-06T02:56:23;18.15;;;10.82;;
22490;SDS011;11412;50.802;4.350;2023-04-06T02:58:49;15.88;;;11.02;;
22490;SDS011;11412;50.802;4.350;2023-04-06T03:01:15;14.88;;;10.77;;
22490;SDS011;11412;50.802;4.350;2023-04-06T03:03:41;19.52;;;11.68;;
22490;SDS011;11412;50.802;4.350;2023-04-06T03:06:07;15.50;;;10.63;;
22490;SDS011;11412;50.802;4.350;2023-04-06T03:08:32;16.75;;;11.45;;
22490;SDS011;11412;50.802;4.350;2023-04-06T03:10:58;16.40;;;11.32;;
22490;SDS011;11412;50.802;4.350;2023-04-06T03:13:24;17.52;;;10.82;;
22490;SDS011;11412;50.802;4.350;2023-04-06T03:15:49;16.83;;;11.05;;
22490;SDS011;11412;50.802;4.350;2023-04-06T03:18:15;14.65;;;10.52;;
22490;SDS011;11412;50.802;4.350;2023-04-06T03:20:42;14.90;;;10.30;;
22490;SDS011;11412;50.802;4.350;2023-04-06T03:23:08;14.07;;;10.20;;
22490;SDS011;11412;50.802;4.350;2023-04-06T03:25:34;14.63;;;10.82;;
22490;SDS011;11412;50.802;4.350;2023-04-06T03:28:00;19.65;;;11.35;;
22490;SDS011;11412;50.802;4.350;2023-04-06T03:30:25;16.35;;;10.45;;
22490;SDS011;11412;50.802;4.350;2023-04-06T03:32:51;16.02;;;10.50;;
22490;SDS011;11412;50.802;4.350;2023-04-06T03:35:17;19.38;;;10.90;;
22490;SDS011;11412;50.802;4.350;2023-04-06T03:37:43;15.20;;;11.07;;
22490;SDS011;11412;50.802;4.350;2023-04-06T03:40:09;13.98;;;10.63;;
22490;SDS011;11412;50.802;4.350;2023-04-06T03:42:35;15.93;;;10.70;;
22490;SDS011;11412;50.802;4.350;2023-04-06T03:45:01;17.17;;;11.20;;
22490;SDS011;11412;50.802;4.350;2023-04-06T03:47:26;14.88;;;10.55;;
22490;SDS011;11412;50.802;4.350;2023-04-06T03:49:52;14.70;;;10.80;;
22490;SDS011;11412;50.802;4.350;2023-04-06T03:52:18;15.93;;;10.50;;
22490;SDS011;11412;50.802;4.350;2023-04-06T03:54:43;14.95;;;11.20;;
22490;SDS011;11412;50.802;4.350;2023-04-06T03:57:09;15.88;;;10.90;;
22490;SDS011;11412;50.802;4.350;2023-04-06T03:59:35;14.95;;;11.13;;
22490;SDS011;11412;50.802;4.350;2023-04-06T04:02:01;16.90;;;10.60;;
22490;SDS011;11412;50.802;4.350;2023-04-06T04:04:26;16.35;;;10.55;;
22490;SDS011;11412;50.802;4.350;2023-04-06T04:06:52;13.30;;;10.15;;
22490;SDS011;11412;50.802;4.350;2023-04-06T04:09:17;16.55;;;10.68;;
22490;SDS011;11412;50.802;4.350;2023-04-06T04:11:43;15.82;;;9.90;;
22490;SDS011;11412;50.802;4.350;2023-04-06T04:14:09;14.82;;;10.48;;
22490;SDS011;11412;50.802;4.350;2023-04-06T04:16:35;14.52;;;10.48;;
22490;SDS011;11412;50.802;4.350;2023-04-06T04:19:00;16.55;;;10.80;;
22490;SDS011;11412;50.802;4.350;2023-04-06T04:21:28;13.73;;;10.68;;
22490;SDS011;11412;50.802;4.350;2023-04-06T04:23:55;14.30;;;10.27;;
22490;SDS011;11412;50.802;4.350;2023-04-06T04:26:21;13.43;;;9.52;;
22490;SDS011;11412;50.802;4.350;2023-04-06T04:28:47;16.08;;;10.25;;
22490;SDS011;11412;50.802;4.350;2023-04-06T04:31:12;16.05;;;10.48;;
22490;SDS011;11412;50.802;4.350;2023-04-06T04:33:38;19.17;;;11.55;;
22490;SDS011;11412;50.802;4.350;2023-04-06T04:36:04;16.67;;;10.75;;
22490;SDS011;11412;50.802;4.350;2023-04-06T04:38:30;16.27;;;11.20;;
22490;SDS011;11412;50.802;4.350;2023-04-06T04:40:56;14.93;;;10.25;;
22490;SDS011;11412;50.802;4.350;2023-04-06T04:43:21;16.42;;;11.10;;
22490;SDS011;11412;50.802;4.350;2023-04-06T04:45:47;14.82;;;10.20;;
22490;SDS011;11412;50.802;4.350;2023-04-06T04:48:13;15.48;;;11.18;;
22490;SDS011;11412;50.802;4.350;2023-04-06T04:50:38;18.02;;;10.93;;
22490;SDS011;11412;50.802;4.350;2023-04-06T04:53:04;17.23;;;10.85;;
22490;SDS011;11412;50.802;4.350;2023-04-06T04:55:31;20.85;;;11.07;;
22490;SDS011;11412;50.802;4.350;2023-04-06T04:57:57;15.02;;;10.70;;
22490;SDS011;11412;50.802;4.350;2023-04-06T05:00:22;16.55;;;11.20;;
22490;SDS011;11412;50.802;4.350;2023-04-06T05:02:48;15.98;;;10.55;;
22490;SDS011;11412;50.802;4.350;2023-04-06T05:05:14;15.68;;;11.18;;
22490;SDS011;11412;50.802;4.350;2023-04-06T05:07:40;17.23;;;10.95;;
22490;SDS011;11412;50.802;4.350;2023-04-06T05:10:05;15.35;;;11.02;;
22490;SDS011;11412;50.802;4.350;2023-04-06T05:12:31;16.80;;;11.63;;
22490;SDS011;11412;50.802;4.350;2023-04-06T05:14:57;16.17;;;12.27;;
22490;SDS011;11412;50.802;4.350;2023-04-06T05:17:23;16.42;;;11.02;;
22490;SDS011;11412;50.802;4.350;2023-04-06T05:19:49;18.35;;;12.00;;
22490;SDS011;11412;50.802;4.350;2023-04-06T05:22:15;16.58;;;11.32;;
22490;SDS011;11412;50.802;4.350;2023-04-06T05:24:42;20.52;;;12.65;;
22490;SDS011;11412;50.802;4.350;2023-04-06T05:27:08;16.85;;;11.50;;
22490;SDS011;11412;50.802;4.350;2023-04-06T05:29:34;13.70;;;11.13;;
22490;SDS011;11412;50.802;4.350;2023-04-06T05:32:00;17.05;;;11.32;;
22490;SDS011;11412;50.802;4.350;2023-04-06T05:34:26;17.30;;;11.18;;
22490;SDS011;11412;50.802;4.350;2023-04-06T05:36:52;19.95;;;12.43;;
22490;SDS011;11412;50.802;4.350;2023-04-06T05:39:18;16.67;;;12.23;;
22490;SDS011;11412;50.802;4.350;2023-04-06T05:41:43;17.90;;;12.13;;
22490;SDS011;11412;50.802;4.350;2023-04-06T05:44:10;19.55;;;11.77;;
22490;SDS011;11412;50.802;4.350;2023-04-06T05:46:35;20.83;;;12.65;;
22490;SDS011;11412;50.802;4.350;2023-04-06T05:49:01;17.90;;;11.95;;
22490;SDS011;11412;50.802;4.350;2023-04-06T05:51:27;16.45;;;12.18;;
22490;SDS011;11412;50.802;4.350;2023-04-06T05:53:52;21.00;;;13.32;;
22490;SDS011;11412;50.802;4.350;2023-04-06T05:56:18;23.70;;;13.13;;
22490;SDS011;11412;50.802;4.350;2023-04-06T05:58:44;22.08;;;13.70;;
22490;SDS011;11412;50.802;4.350;2023-04-06T06:01:10;18.90;;;13.13;;
22490;SDS011;11412;50.802;4.350;2023-04-06T06:03:35;23.85;;;13.00;;
22490;SDS011;11412;50.802;4.350;2023-04-06T06:06:02;21.90;;;13.43;;
22490;SDS011;11412;50.802;4.350;2023-04-06T06:08:29;23.55;;;13.20;;
22490;SDS011;11412;50.802;4.350;2023-04-06T06:10:54;23.65;;;12.80;;
22490;SDS011;11412;50.802;4.350;2023-04-06T06:13:21;22.58;;;13.88;;
22490;SDS011;11412;50.802;4.350;2023-04-06T06:15:47;18.80;;;12.93;;
22490;SDS011;11412;50.802;4.350;2023-04-06T06:18:13;21.08;;;13.48;;
22490;SDS011;11412;50.802;4.350;2023-04-06T06:20:39;20.63;;;13.13;;
22490;SDS011;11412;50.802;4.350;2023-04-06T06:23:05;22.40;;;13.25;;
22490;SDS011;11412;50.802;4.350;2023-04-06T06:25:31;25.85;;;13.45;;
22490;SDS011;11412;50.802;4.350;2023-04-06T06:27:57;18.77;;;13.98;;
22490;SDS011;11412;50.802;4.350;2023-04-06T06:30:23;19.98;;;12.15;;
22490;SDS011;11412;50.802;4.350;2023-04-06T06:32:49;20.90;;;14.10;;
22490;SDS011;11412;50.802;4.350;2023-04-06T06:35:16;21.52;;;13.75;;
22490;SDS011;11412;50.802;4.350;2023-04-06T06:37:42;20.00;;;13.70;;
22490;SDS011;11412;50.802;4.350;2023-04-06T06:40:08;21.80;;;13.90;;
22490;SDS011;11412;50.802;4.350;2023-04-06T06:42:35;18.33;;;13.77;;
22490;SDS011;11412;50.802;4.350;2023-04-06T06:45:01;22.35;;;13.30;;
22490;SDS011;11412;50.802;4.350;2023-04-06T06:47:27;24.77;;;13.50;;
22490;SDS011;11412;50.802;4.350;2023-04-06T06:49:52;19.67;;;14.30;;
22490;SDS011;11412;50.802;4.350;2023-04-06T06:52:18;23.27;;;14.85;;
22490;SDS011;11412;50.802;4.350;2023-04-06T06:54:44;25.63;;;14.35;;
22490;SDS011;11412;50.802;4.350;2023-04-06T06:57:09;22.13;;;13.73;;
22490;SDS011;11412;50.802;4.350;2023-04-06T06:59:35;20.25;;;13.93;;
22490;SDS011;11412;50.802;4.350;2023-04-06T07:02:01;24.48;;;13.27;;
22490;SDS011;11412;50.802;4.350;2023-04-06T07:04:26;20.90;;;14.57;;
22490;SDS011;11412;50.802;4.350;2023-04-06T07:06:52;21.90;;;13.70;;
22490;SDS011;11412;50.802;4.350;2023-04-06T07:09:18;21.35;;;14.35;;
22490;SDS011;11412;50.802;4.350;2023-04-06T07:11:44;20.13;;;13.02;;
22490;SDS011;11412;50.802;4.350;2023-04-06T07:14:10;18.90;;;12.68;;
22490;SDS011;11412;50.802;4.350;2023-04-06T07:16:36;22.27;;;12.85;;
22490;SDS011;11412;50.802;4.350;2023-04-06T07:19:02;20.85;;;11.98;;
22490;SDS011;11412;50.802;4.350;2023-04-06T07:21:28;15.52;;;10.55;;
22490;SDS011;11412;50.802;4.350;2023-04-06T07:23:53;16.48;;;11.82;;
22490;SDS011;11412;50.802;4.350;2023-04-06T07:26:19;20.30;;;11.80;;
22490;SDS011;11412;50.802;4.350;2023-04-06T07:28:45;19.05;;;11.85;;
22490;SDS011;11412;50.802;4.350;2023-04-06T07:31:11;16.52;;;10.32;;
22490;SDS011;11412;50.802;4.350;2023-04-06T07:33:36;15.15;;;10.25;;
22490;SDS011;11412;50.802;4.350;2023-04-06T07:36:02;20.25;;;10.80;;
22490;SDS011;11412;50.802;4.350;2023-04-06T07:38:28;16.63;;;10.40;;
22490;SDS011;11412;50.802;4.350;2023-04-06T07:40:54;16.63;;;10.82;;
22490;SDS011;11412;50.802;4.350;2023-04-06T07:43:20;18.45;;;10.05;;
22490;SDS011;11412;50.802;4.350;2023-04-06T07:45:46;14.43;;;9.52;;
22490;SDS011;11412;50.802;4.350;2023-04-06T07:48:11;13.63;;;9.27;;
22490;SDS011;11412;50.802;4.350;2023-04-06T07:50:37;12.63;;;9.13;;
22490;SDS011;11412;50.802;4.350;2023-04-06T07:53:03;16.70;;;9.15;;
22490;SDS011;11412;50.802;4.350;2023-04-06T07:55:30;14.68;;;9.20;;
22490;SDS011;11412;50.802;4.350;2023-04-06T07:57:56;13.80;;;9.50;;
22490;SDS011;11412;50.802;4.350;2023-04-06T08:00:21;10.35;;;8.52;;
22490;SDS011;11412;50.802;4.350;2023-04-06T08:02:47;13.95;;;8.93;;
22490;SDS011;11412;50.802;4.350;2023-04-06T08:05:13;13.40;;;9.18;;
22490;SDS011;11412;50.802;4.350;2023-04-06T08:07:38;12.82;;;8.93;;
22490;SDS011;11412;50.802;4.350;2023-04-06T08:10:04;13.98;;;9.18;;
22490;SDS011;11412;50.802;4.350;2023-04-06T08:12:31;15.32;;;10.13;;
22490;SDS011;11412;50.802;4.350;2023-04-06T08:14:57;15.55;;;10.02;;
22490;SDS011;11412;50.802;4.350;2023-04-06T08:17:24;14.10;;;9.38;;
22490;SDS011;11412;50.802;4.350;2023-04-06T08:19:50;12.55;;;9.27;;
22490;SDS011;11412;50.802;4.350;2023-04-06T08:22:16;12.38;;;9.15;;
22490;SDS011;11412;50.802;4.350;2023-04-06T08:24:41;14.25;;;9.27;;
22490;SDS011;11412;50.802;4.350;2023-04-06T08:27:07;13.80;;;9.27;;
22490;SDS011;11412;50.802;4.350;2023-04-06T08:29:33;14.45;;;7.78;;
22490;SDS011;11412;50.802;4.350;2023-04-06T08:31:58;12.60;;;8.85;;
22490;SDS011;11412;50.802;4.350;2023-04-06T08:34:25;15.35;;;8.98;;
22490;SDS011;11412;50.802;4.350;2023-04-06T08:36:50;14.57;;;9.10;;
22490;SDS011;11412;50.802;4.350;2023-04-06T08:39:16;12.10;;;8.68;;
22490;SDS011;11412;50.802;4.350;2023-04-06T08:41:42;11.38;;;8.32;;
22490;SDS011;11412;50.802;4.350;2023-04-06T08:44:08;11.88;;;8.57;;
22490;SDS011;11412;50.802;4.350;2023-04-06T08:46:34;11.68;;;8.52;;
22490;SDS011;11412;50.802;4.350;2023-04-06T08:49:01;16.38;;;9.10;;
22490;SDS011;11412;50.802;4.350;2023-04-06T08:51:28;11.73;;;8.57;;
22490;SDS011;11412;50.802;4.350;2023-04-06T08:53:58;12.55;;;9.18;;
22490;SDS011;11412;50.802;4.350;2023-04-06T08:56:26;13.13;;;9.52;;
22490;SDS011;11412;50.802;4.350;2023-04-06T08:58:53;15.95;;;9.00;;
22490;SDS011;11412;50.802;4.350;2023-04-06T09:01:21;13.48;;;9.10;;
22490;SDS011;11412;50.802;4.350;2023-04-06T09:03:51;15.35;;;9.35;;
22490;SDS011;11412;50.802;4.350;2023-04-06T09:06:21;12.52;;;9.00;;
22490;SDS011;11412;50.802;4.350;2023-04-06T09:08:47;11.93;;;9.43;;
22490;SDS011;11412;50.802;4.350;2023-04-06T09:11:13;12.40;;;9.23;;
22490;SDS011;11412;50.802;4.350;2023-04-06T09:16:19;10.65;;;8.13;;
22490;SDS011;11412;50.802;4.350;2023-04-06T09:18:46;13.30;;;8.98;;
22490;SDS011;11412;50.802;4.350;2023-04-06T09:21:12;13.88;;;9.57;;
22490;SDS011;11412;50.802;4.350;2023-04-06T09:23:41;14.93;;;8.73;;
22490;SDS011;11412;50.802;4.350;2023-04-06T09:28:43;10.20;;;7.65;;
22490;SDS011;11412;50.802;4.350;2023-04-06T09:31:11;10.93;;;8.02;;
22490;SDS011;11412;50.802;4.350;2023-04-06T09:33:41;11.63;;;8.43;;
22490;SDS011;11412;50.802;4.350;2023-04-06T09:36:07;9.75;;;7.75;;
22490;SDS011;11412;50.802;4.350;2023-04-06T09:38:51;13.38;;;8.77;;
22490;SDS011;11412;50.802;4.350;2023-04-06T09:41:24;12.20;;;7.73;;
22490;SDS011;11412;50.802;4.350;2023-04-06T09:43:52;13.85;;;7.80;;
22490;SDS011;11412;50.802;4.350;2023-04-06T09:46:27;9.48;;;7.65;;
22490;SDS011;11412;50.802;4.350;2023-04-06T09:48:55;10.07;;;7.85;;
22490;SDS011;11412;50.802;4.350;2023-04-06T09:51:22;12.77;;;7.43;;
22490;SDS011;11412;50.802;4.350;2023-04-06T09:53:52;9.80;;;7.57;;
22490;SDS011;11412;50.802;4.350;2023-04-06T09:56:20;11.52;;;7.88;;
22490;SDS011;11412;50.802;4.350;2023-04-06T09:58:51;11.65;;;8.00;;
22490;SDS011;11412;50.802;4.350;2023-04-06T10:01:21;11.00;;;8.27;;
22490;SDS011;11412;50.802;4.350;2023-04-06T10:06:21;11.48;;;7.60;;
22490;SDS011;11412;50.802;4.350;2023-04-06T10:08:50;12.32;;;7.88;;
22490;SDS011;11412;50.802;4.350;2023-04-06T10:11:19;10.98;;;7.50;;
22490;SDS011;11412;50.802;4.350;2023-04-06T10:13:46;14.70;;;8.30;;
22490;SDS011;11412;50.802;4.350;2023-04-06T10:16:14;12.52;;;7.72;;
22490;SDS011;11412;50.802;4.350;2023-04-06T10:18:41;11.68;;;7.57;;
22490;SDS011;11412;50.802;4.350;2023-04-06T10:21:12;11.00;;;7.47;;
22490;SDS011;11412;50.802;4.350;2023-04-06T10:23:45;9.93;;;7.53;;
22490;SDS011;11412;50.802;4.350;2023-04-06T10:26:25;12.23;;;7.82;;
22490;SDS011;11412;50.802;4.350;2023-04-06T10:28:51;10.70;;;8.18;;
22490;SDS011;11412;50.802;4.350;2023-04-06T10:31:25;8.95;;;8.02;;
22490;SDS011;11412;50.802;4.350;2023-04-06T10:36:24;10.18;;;7.45;;
22490;SDS011;11412;50.802;4.350;2023-04-06T10:38:57;8.80;;;7.78;;
22490;SDS011;11412;50.802;4.350;2023-04-06T10:41:31;11.02;;;7.80;;
22490;SDS011;11412;50.802;4.350;2023-04-06T10:43:58;8.65;;;7.75;;
22490;SDS011;11412;50.802;4.350;2023-04-06T10:46:26;10.00;;;7.70;;
22490;SDS011;11412;50.802;4.350;2023-04-06T10:48:54;10.60;;;8.35;;
22490;SDS011;11412;50.802;4.350;2023-04-06T10:51:23;10.65;;;8.02;;
22490;SDS011;11412;50.802;4.350;2023-04-06T10:53:52;13.40;;;8.43;;
22490;SDS011;11412;50.802;4.350;2023-04-06T10:56:21;11.13;;;7.78;;
22490;SDS011;11412;50.802;4.350;2023-04-06T10:58:53;10.73;;;8.23;;
22490;SDS011;11412;50.802;4.350;2023-04-06T11:01:23;11.98;;;9.05;;
22490;SDS011;11412;50.802;4.350;2023-04-06T11:03:52;11.82;;;9.43;;
22490;SDS011;11412;50.802;4.350;2023-04-06T11:06:25;10.23;;;8.57;;
22490;SDS011;11412;50.802;4.350;2023-04-06T11:08:54;10.68;;;8.30;;
22490;SDS011;11412;50.802;4.350;2023-04-06T11:11:20;12.07;;;9.15;;
22490;SDS011;11412;50.802;4.350;2023-04-06T11:16:15;11.13;;;9.07;;
22490;SDS011;11412;50.802;4.350;2023-04-06T11:18:55;11.45;;;8.52;;
22490;SDS011;11412;50.802;4.350;2023-04-06T11:21:36;11.70;;;8.95;;
22490;SDS011;11412;50.802;4.350;2023-04-06T11:24:19;12.70;;;8.43;;
22490;SDS011;11412;50.802;4.350;2023-04-06T11:26:50;12.85;;;9.63;;
22490;SDS011;11412;50.802;4.350;2023-04-06T11:29:20;13.82;;;9.35;;
22490;SDS011;11412;50.802;4.350;2023-04-06T11:31:51;11.30;;;8.38;;
22490;SDS011;11412;50.802;4.350;2023-04-06T11:34:19;12.60;;;9.60;;
22490;SDS011;11412;50.802;4.350;2023-04-06T11:36:49;12.20;;;8.70;;
22490;SDS011;11412;50.802;4.350;2023-04-06T11:39:22;12.82;;;9.68;;
22490;SDS011;11412;50.802;4.350;2023-04-06T11:41:50;14.82;;;8.95;;
22490;SDS011;11412;50.802;4.350;2023-04-06T11:47:04;11.10;;;9.57;;
22490;SDS011;11412;50.802;4.350;2023-04-06T11:49:33;14.57;;;9.15;;
22490;SDS011;11412;50.802;4.350;2023-04-06T11:52:02;13.60;;;9.98;;
22490;SDS011;11412;50.802;4.350;2023-04-06T11:54:38;13.65;;;10.18;;
22490;SDS011;11412;50.802;4.350;2023-04-06T11:57:06;13.50;;;9.38;;
22490;SDS011;11412;50.802;4.350;2023-04-06T11:59:34;12.20;;;9.48;;
22490;SDS011;11412;50.802;4.350;2023-04-06T12:02:02;12.43;;;10.10;;
22490;SDS011;11412;50.802;4.350;2023-04-06T12:04:28;14.40;;;9.90;;
22490;SDS011;11412;50.802;4.350;2023-04-06T12:06:55;11.65;;;9.85;;
22490;SDS011;11412;50.802;4.350;2023-04-06T12:09:21;14.50;;;10.02;;
22490;SDS011;11412;50.802;4.350;2023-04-06T12:11:47;15.60;;;10.05;;
22490;SDS011;11412;50.802;4.350;2023-04-06T12:14:13;13.70;;;9.88;;
22490;SDS011;11412;50.802;4.350;2023-04-06T12:16:39;14.10;;;10.00;;
22490;SDS011;11412;50.802;4.350;2023-04-06T12:19:05;13.98;;;10.32;;
22490;SDS011;11412;50.802;4.350;2023-04-06T12:21:31;12.60;;;9.93;;
22490;SDS011;11412;50.802;4.350;2023-04-06T12:23:58;13.63;;;10.70;;
22490;SDS011;11412;50.802;4.350;2023-04-06T12:26:24;13.05;;;10.00;;
22490;SDS011;11412;50.802;4.350;2023-04-06T12:28:51;14.07;;;10.00;;
22490;SDS011;11412;50.802;4.350;2023-04-06T12:31:18;13.05;;;10.55;;
22490;SDS011;11412;50.802;4.350;2023-04-06T12:33:47;15.13;;;10.63;;
22490;SDS011;11412;50.802;4.350;2023-04-06T12:36:14;13.00;;;10.40;;
22490;SDS011;11412;50.802;4.350;2023-04-06T12:38:44;13.23;;;10.13;;
22490;SDS011;11412;50.802;4.350;2023-04-06T12:41:12;15.30;;;10.73;;
22490;SDS011;11412;50.802;4.350;2023-04-06T12:43:39;11.52;;;9.95;;
22490;SDS011;11412;50.802;4.350;2023-04-06T12:46:05;13.70;;;9.40;;
22490;SDS011;11412;50.802;4.350;2023-04-06T12:48:31;11.27;;;9.70;;
22490;SDS011;11412;50.802;4.350;2023-04-06T12:50:58;13.82;;;10.13;;
22490;SDS011;11412;50.802;4.350;2023-04-06T12:53:24;12.30;;;9.70;;
22490;SDS011;11412;50.802;4.350;2023-04-06T12:55:51;10.30;;;9.02;;
22490;SDS011;11412;50.802;4.350;2023-04-06T12:58:18;13.57;;;10.63;;
22490;SDS011;11412;50.802;4.350;2023-04-06T13:00:44;12.90;;;10.07;;
22490;SDS011;11412;50.802;4.350;2023-04-06T13:03:10;11.73;;;9.95;;
22490;SDS011;11412;50.802;4.350;2023-04-06T13:05:36;12.57;;;10.05;;
22490;SDS011;11412;50.802;4.350;2023-04-06T13:08:08;15.10;;;10.73;;
22490;SDS011;11412;50.802;4.350;2023-04-06T13:10:34;13.75;;;10.35;;
22490;SDS011;11412;50.802;4.350;2023-04-06T13:12:59;15.38;;;10.23;;
22490;SDS011;11412;50.802;4.350;2023-04-06T13:15:25;16.40;;;10.05;;
22490;SDS011;11412;50.802;4.350;2023-04-06T13:17:51;16.98;;;11.15;;
22490;SDS011;11412;50.802;4.350;2023-04-06T13:20:16;13.40;;;10.35;;
22490;SDS011;11412;50.802;4.350;2023-04-06T13:22:42;13.45;;;10.23;;
22490;SDS011;11412;50.802;4.350;2023-04-06T13:25:08;14.25;;;10.93;;
22490;SDS011;11412;50.802;4.350;2023-04-06T13:27:34;13.55;;;11.20;;
22490;SDS011;11412;50.802;4.350;2023-04-06T13:30:01;12.48;;;10.55;;
22490;SDS011;11412;50.802;4.350;2023-04-06T13:32:28;15.07;;;11.02;;
22490;SDS011;11412;50.802;4.350;2023-04-06T13:34:57;15.70;;;11.05;;
22490;SDS011;11412;50.802;4.350;2023-04-06T13:37:23;16.92;;;11.52;;
22490;SDS011;11412;50.802;4.350;2023-04-06T13:39:49;12.43;;;10.75;;
22490;SDS011;11412;50.802;4.350;2023-04-06T13:42:15;13.02;;;10.45;;
22490;SDS011;11412;50.802;4.350;2023-04-06T13:44:40;14.57;;;10.77;;
22490;SDS011;11412;50.802;4.350;2023-04-06T13:47:06;13.93;;;10.77;;
22490;SDS011;11412;50.802;4.350;2023-04-06T13:49:32;14.85;;;10.75;;
22490;SDS011;11412;50.802;4.350;2023-04-06T13:51:57;14.00;;;11.60;;
22490;SDS011;11412;50.802;4.350;2023-04-06T13:54:23;15.13;;;11.00;;
22490;SDS011;11412;50.802;4.350;2023-04-06T13:56:51;16.23;;;10.90;;
22490;SDS011;11412;50.802;4.350;2023-04-06T13:59:17;13.90;;;11.27;;
22490;SDS011;11412;50.802;4.350;2023-04-06T14:01:43;12.93;;;10.38;;
22490;SDS011;11412;50.802;4.350;2023-04-06T14:04:10;12.63;;;10.88;;
22490;SDS011;11412;50.802;4.350;2023-04-06T14:06:36;15.02;;;10.88;;
22490;SDS011;11412;50.802;4.350;2023-04-06T14:09:02;13.82;;;10.68;;
22490;SDS011;11412;50.802;4.350;2023-04-06T14:11:28;14.27;;;10.88;;
22490;SDS011;11412;50.802;4.350;2023-04-06T14:13:54;13.70;;;11.18;;
22490;SDS011;11412;50.802;4.350;2023-04-06T14:16:23;13.88;;;11.65;;
22490;SDS011;11412;50.802;4.350;2023-04-06T14:18:49;15.77;;;12.35;;
22490;SDS011;11412;50.802;4.350;2023-04-06T14:21:15;13.50;;;11.90;;
22490;SDS011;11412;50.802;4.350;2023-04-06T14:23:42;14.60;;;11.50;;
22490;SDS011;11412;50.802;4.350;2023-04-06T14:26:08;13.48;;;11.65;;
22490;SDS011;11412;50.802;4.350;2023-04-06T14:28:34;15.40;;;11.73;;
22490;SDS011;11412;50.802;4.350;2023-04-06T14:31:02;16.70;;;11.70;;
22490;SDS011;11412;50.802;4.350;2023-04-06T14:33:34;16.30;;;12.20;;
22490;SDS011;11412;50.802;4.350;2023-04-06T14:36:03;17.40;;;12.38;;
22490;SDS011;11412;50.802;4.350;2023-04-06T14:38:30;16.65;;;12.27;;